Time;durP1;ratioP1;P1;durP2;ratioP2;P2;SDS_P1;SDS_P2;PMS_P1;PMS_P2;Temp;Humidity;BMP_temperature;BMP_pressure;BME280_temperature;BME280_humidity;BME280_pressure;Samples;Min_cycle;Max_cycle;Signal;HPM_P1;HPM_P2
2021/08/24 00:00:32;;;;;;;;;24.67;22.67;;;;;;;;6489217;39;9044;-61
2021/08/24 00:06:34;;;;;;;;;19.67;18.33;;;;;;;;6490279;31;9045;-61
2021/08/24 00:12:37;;;;;;;;;20.33;19.67;;;;;;;;6489166;46;8976;-61
2021/08/24 00:18:39;;;;;;;;;23.00;21.33;;;;;;;;6488838;39;8934;-63
2021/08/24 00:24:41;;;;;;;;;23.00;22.33;;;;;;;;6490241;39;9072;-62
2021/08/24 00:30:49;;;;;;;;;23.00;22.33;;;;;;;;6488132;47;9005;-62
2021/08/24 00:36:51;;;;;;;;;18.00;18.00;;;;;;;;6489874;31;9003;-61
2021/08/24 00:42:53;;;;;;;;;29.33;23.67;;;;;;;;6489375;39;9689;-61
2021/08/24 00:48:59;;;;;;;;;28.00;26.33;;;;;;;;6489080;39;8996;-63
2021/08/24 00:55:01;;;;;;;;;25.00;22.67;;;;;;;;6489115;39;8918;-61
2021/08/24 01:01:04;;;;;;;;;22.00;20.00;;;;;;;;6489386;31;8949;-61
2021/08/24 01:07:21;;;;;;;;;25.00;21.67;;;;;;;;6489425;31;9029;-61
2021/08/24 01:13:38;;;;;;;;;21.67;21.67;;;;;;;;6490118;39;8988;-61
2021/08/24 01:20:09;;;;;;;;;28.67;27.67;;;;;;;;6489960;46;8954;-62
2021/08/24 01:26:26;;;;;;;;;22.00;22.00;;;;;;;;6491061;39;8977;-62
2021/08/24 01:32:54;;;;;;;;;23.67;22.33;;;;;;;;6490261;31;8938;-62
2021/08/24 01:39:27;;;;;;;;;20.33;20.33;;;;;;;;6490529;39;9001;-62
2021/08/24 01:45:37;;;;;;;;;30.00;23.00;;;;;;;;6490766;39;9065;-61
2021/08/24 01:52:05;;;;;;;;;27.00;25.00;;;;;;;;6490913;39;8957;-62
2021/08/24 01:58:20;;;;;;;;;25.00;24.33;;;;;;;;6490726;39;8962;-61
2021/08/24 02:04:32;;;;;;;;;22.33;21.67;;;;;;;;6491000;31;8976;-62
2021/08/24 02:10:35;;;;;;;;;21.33;21.00;;;;;;;;6490335;39;9557;-62
2021/08/24 02:16:42;;;;;;;;;31.33;25.67;;;;;;;;6490346;46;9068;-61
2021/08/24 02:22:49;;;;;;;;;25.00;24.00;;;;;;;;6489801;39;8966;-62
2021/08/24 02:28:55;;;;;;;;;18.67;18.00;;;;;;;;6489822;46;8973;-61
2021/08/24 02:35:17;;;;;;;;;22.33;21.33;;;;;;;;6490086;39;8966;-62
2021/08/24 02:41:23;;;;;;;;;25.67;23.33;;;;;;;;6490061;39;8953;-61
2021/08/24 02:47:26;;;;;;;;;27.00;23.67;;;;;;;;6489784;39;8942;-61
2021/08/24 02:53:29;;;;;;;;;29.00;27.00;;;;;;;;6489338;46;8986;-62
2021/08/24 02:59:32;;;;;;;;;23.00;21.33;;;;;;;;6490002;39;9017;-61
2021/08/24 03:05:35;;;;;;;;;23.33;20.67;;;;;;;;6490053;39;9834;-62
2021/08/24 03:11:47;;;;;;;;;21.67;19.33;;;;;;;;6489106;46;8986;-62
2021/08/24 03:18:08;;;;;;;;;27.00;27.00;;;;;;;;6490846;31;8977;-62
2021/08/24 03:24:13;;;;;;;;;21.33;17.67;;;;;;;;6489717;31;9551;-62
2021/08/24 03:30:16;;;;;;;;;27.67;24.67;;;;;;;;6490008;31;9183;-62
2021/08/24 03:36:18;;;;;;;;;27.33;27.00;;;;;;;;6489095;46;9057;-63
2021/08/24 03:42:21;;;;;;;;;23.67;23.67;;;;;;;;6489193;31;8949;-61
2021/08/24 03:48:23;;;;;;;;;22.33;21.33;;;;;;;;6490063;39;8954;-62
2021/08/24 03:54:25;;;;;;;;;23.33;23.33;;;;;;;;6488730;46;9082;-62
2021/08/24 04:07:19;;;;;;;;;25.33;25.33;;;;;;;;6486265;31;9011;-61
2021/08/24 04:13:22;;;;;;;;;24.00;22.00;;;;;;;;6491179;46;9013;-60
2021/08/24 04:19:25;;;;;;;;;22.00;21.67;;;;;;;;6492225;39;9018;-61
2021/08/24 04:25:27;;;;;;;;;27.33;24.67;;;;;;;;6491755;47;9017;-60
2021/08/24 04:31:31;;;;;;;;;31.33;25.33;;;;;;;;6491661;31;8953;-60
2021/08/24 04:37:33;;;;;;;;;32.00;30.67;;;;;;;;6492903;39;9088;-61
2021/08/24 04:43:35;;;;;;;;;28.33;28.33;;;;;;;;6491689;31;9025;-61
2021/08/24 04:49:39;;;;;;;;;24.67;24.67;;;;;;;;6493194;46;8916;-60
2021/08/24 04:55:41;;;;;;;;;23.50;23.00;;;;;;;;6494972;39;9041;-61
2021/08/24 05:01:47;;;;;;;;;28.33;25.33;;;;;;;;6493519;31;9103;-60
2021/08/24 05:07:50;;;;;;;;;26.00;26.00;;;;;;;;6493746;31;8982;-61
2021/08/24 05:13:52;;;;;;;;;26.33;24.33;;;;;;;;6493377;39;9669;-61
2021/08/24 05:19:56;;;;;;;;;24.00;24.00;;;;;;;;6493658;39;9005;-61
2021/08/24 05:25:59;;;;;;;;;25.00;23.00;;;;;;;;6492854;39;9681;-60
2021/08/24 05:32:02;;;;;;;;;23.67;23.00;;;;;;;;6489830;31;9004;-60
2021/08/24 05:38:04;;;;;;;;;24.00;24.00;;;;;;;;6490647;39;9013;-60
2021/08/24 05:44:08;;;;;;;;;22.00;22.00;;;;;;;;6490270;31;9210;-61
2021/08/24 05:50:12;;;;;;;;;21.33;20.67;;;;;;;;6490404;39;9067;-60
2021/08/24 05:56:18;;;;;;;;;24.00;20.33;;;;;;;;6489594;31;9083;-60
2021/08/24 06:02:20;;;;;;;;;26.00;25.67;;;;;;;;6489810;31;9609;-61
2021/08/24 06:08:22;;;;;;;;;35.33;29.00;;;;;;;;6488576;39;9695;-60
2021/08/24 06:14:26;;;;;;;;;23.67;21.33;;;;;;;;6488120;39;9055;-60
2021/08/24 06:20:29;;;;;;;;;32.33;29.00;;;;;;;;6488652;46;8954;-61
2021/08/24 06:26:32;;;;;;;;;21.33;21.33;;;;;;;;6486593;39;9029;-60
2021/08/24 06:32:44;;;;;;;;;23.00;22.00;;;;;;;;6488773;39;9018;-60
2021/08/24 06:38:47;;;;;;;;;22.67;21.67;;;;;;;;6488093;46;9064;-61
2021/08/24 06:44:49;;;;;;;;;23.33;20.33;;;;;;;;6486465;39;9257;-59
2021/08/24 06:50:52;;;;;;;;;20.67;20.67;;;;;;;;6486816;39;9002;-60
2021/08/24 06:56:54;;;;;;;;;16.33;14.67;;;;;;;;6487100;39;9010;-61
2021/08/24 07:02:57;;;;;;;;;22.50;22.25;;;;;;;;6488956;39;9020;-61
2021/08/24 07:09:03;;;;;;;;;18.00;16.25;;;;;;;;6489023;39;9012;-60
2021/08/24 07:15:06;;;;;;;;;16.25;16.00;;;;;;;;6488196;39;9177;-61
2021/08/24 07:21:14;;;;;;;;;16.50;14.50;;;;;;;;6489301;31;9772;-61
2021/08/24 07:27:17;;;;;;;;;18.00;16.25;;;;;;;;6487512;46;9083;-60
2021/08/24 07:33:20;;;;;;;;;15.75;14.75;;;;;;;;6488388;31;9690;-61
2021/08/24 07:39:22;;;;;;;;;10.75;10.75;;;;;;;;6487460;46;8983;-65
2021/08/24 07:45:26;;;;;;;;;11.50;11.50;;;;;;;;6487061;46;9015;-65
2021/08/24 07:51:28;;;;;;;;;17.50;16.25;;;;;;;;6488592;31;8960;-61
2021/08/24 07:57:30;;;;;;;;;17.00;16.25;;;;;;;;6486902;39;9177;-60
2021/08/24 08:03:32;;;;;;;;;13.00;11.50;;;;;;;;6487806;46;9212;-60
2021/08/24 08:09:36;;;;;;;;;13.25;13.25;;;;;;;;6488366;39;8994;-60
2021/08/24 08:15:38;;;;;;;;;15.67;14.33;;;;;;;;6487651;39;9004;-61
2021/08/24 08:21:41;;;;;;;;;16.00;12.00;;;;;;;;6488240;39;8970;-61
2021/08/24 08:27:43;;;;;;;;;14.00;14.00;;;;;;;;6488077;39;9036;-60
2021/08/24 08:33:45;;;;;;;;;13.00;10.50;;;;;;;;6488067;31;9062;-60
2021/08/24 08:39:48;;;;;;;;;15.50;14.50;;;;;;;;6488154;47;9094;-60
2021/08/24 08:45:51;;;;;;;;;13.50;13.50;;;;;;;;6487857;39;9068;-61
2021/08/24 08:52:06;;;;;;;;;11.50;11.50;;;;;;;;6488430;47;8958;-61
2021/08/24 08:58:45;;;;;;;;;15.00;12.75;;;;;;;;6488019;39;9071;-62
2021/08/24 09:04:48;;;;;;;;;13.25;12.00;;;;;;;;6488889;39;8987;-61
2021/08/24 09:10:53;;;;;;;;;14.25;13.00;;;;;;;;6487210;39;9156;-61
2021/08/24 09:17:13;;;;;;;;;17.50;15.25;;;;;;;;6486754;47;9051;-60
2021/08/24 09:23:15;;;;;;;;;18.00;13.25;;;;;;;;6487638;31;9064;-61
2021/08/24 09:29:19;;;;;;;;;11.75;10.75;;;;;;;;6487401;39;9758;-62
2021/08/24 09:35:32;;;;;;;;;15.50;13.50;;;;;;;;6488737;39;9053;-63
2021/08/24 09:41:40;;;;;;;;;11.25;11.25;;;;;;;;6487433;39;8997;-60
2021/08/24 09:47:59;;;;;;;;;15.75;15.75;;;;;;;;6489658;39;8968;-60
2021/08/24 09:54:22;;;;;;;;;15.00;14.00;;;;;;;;6488949;46;9092;-62
2021/08/24 10:00:53;;;;;;;;;17.00;15.00;;;;;;;;6488936;46;9005;-62
2021/08/24 10:07:02;;;;;;;;;14.75;14.75;;;;;;;;6489351;31;9090;-61
2021/08/24 10:13:51;;;;;;;;;16.50;15.00;;;;;;;;6487204;31;8993;-62
2021/08/24 10:19:56;;;;;;;;;15.75;14.75;;;;;;;;6489286;39;9000;-61
2021/08/24 10:26:03;;;;;;;;;15.75;14.00;;;;;;;;6488376;39;9006;-63
2021/08/24 10:32:11;;;;;;;;;23.00;19.25;;;;;;;;6490757;31;9045;-62
2021/08/24 10:38:17;;;;;;;;;15.25;15.25;;;;;;;;6489105;46;9139;-61
2021/08/24 10:44:25;;;;;;;;;17.00;16.00;;;;;;;;6489969;31;9092;-61
2021/08/24 10:50:48;;;;;;;;;18.50;15.75;;;;;;;;6488716;39;9056;-61
2021/08/24 10:57:08;;;;;;;;;18.00;16.75;;;;;;;;6488504;31;8953;-60
2021/08/24 11:03:44;;;;;;;;;19.25;16.00;;;;;;;;6487532;31;9079;-62
2021/08/24 11:09:55;;;;;;;;;19.75;19.25;;;;;;;;6488054;46;8970;-62
2021/08/24 11:16:03;;;;;;;;;15.75;14.25;;;;;;;;6490091;31;8995;-62
2021/08/24 11:22:08;;;;;;;;;16.00;15.50;;;;;;;;6491913;39;9040;-62
2021/08/24 11:28:53;;;;;;;;;20.75;15.00;;;;;;;;6491876;46;8997;-61
2021/08/24 11:35:02;;;;;;;;;22.75;22.00;;;;;;;;6490406;46;8990;-61
2021/08/24 11:41:13;;;;;;;;;20.25;18.50;;;;;;;;6492183;31;9117;-63
2021/08/24 11:47:22;;;;;;;;;15.00;15.00;;;;;;;;6491855;39;9014;-61
2021/08/24 11:53:47;;;;;;;;;17.00;17.00;;;;;;;;6491879;39;9147;-62
2021/08/24 11:59:54;;;;;;;;;16.25;15.00;;;;;;;;6490994;39;9013;-62
2021/08/24 12:06:08;;;;;;;;;16.75;15.75;;;;;;;;6492238;39;8947;-62
2021/08/24 12:12:28;;;;;;;;;13.00;13.00;;;;;;;;6489798;46;8988;-62
2021/08/24 12:18:30;;;;;;;;;14.50;14.50;;;;;;;;6489482;46;9117;-61
2021/08/24 12:24:40;;;;;;;;;14.50;14.50;;;;;;;;6489033;39;9851;-63
2021/08/24 12:31:00;;;;;;;;;15.25;14.25;;;;;;;;6490201;39;8960;-62
2021/08/24 12:37:04;;;;;;;;;17.50;16.00;;;;;;;;6488595;31;9060;-61
2021/08/24 12:43:18;;;;;;;;;14.00;14.00;;;;;;;;6489088;39;9005;-61
2021/08/24 12:49:20;;;;;;;;;18.50;15.50;;;;;;;;6489500;39;8994;-61
2021/08/24 12:55:38;;;;;;;;;20.00;18.50;;;;;;;;6490099;31;9109;-63
2021/08/24 13:01:41;;;;;;;;;17.50;16.50;;;;;;;;6489239;39;9064;-62
2021/08/24 13:08:06;;;;;;;;;15.75;15.25;;;;;;;;6490310;31;9186;-62
2021/08/24 13:14:49;;;;;;;;;19.50;17.75;;;;;;;;6490838;39;9089;-61
2021/08/24 13:21:03;;;;;;;;;17.75;14.75;;;;;;;;6490924;46;9129;-61
2021/08/24 13:27:13;;;;;;;;;19.75;17.00;;;;;;;;6376899;36;10000599;-60
2021/08/24 13:33:29;;;;;;;;;17.00;15.50;;;;;;;;6491551;39;9008;-62
2021/08/24 13:39:31;;;;;;;;;16.00;14.25;;;;;;;;6489823;39;8948;-62
2021/08/24 13:45:36;;;;;;;;;17.75;17.75;;;;;;;;6489630;31;9000;-62
2021/08/24 13:51:59;;;;;;;;;16.00;15.50;;;;;;;;6490429;31;8999;-62
2021/08/24 13:58:23;;;;;;;;;14.00;12.75;;;;;;;;6521767;31;8920;-62
2021/08/24 14:04:44;;;;;;;;;16.50;15.25;;;;;;;;6492666;31;9784;-62
2021/08/24 14:10:53;;;;;;;;;18.00;17.00;;;;;;;;6490887;39;9049;-63
2021/08/24 14:16:59;;;;;;;;;19.75;17.00;;;;;;;;6491490;39;8954;-61
2021/08/24 14:23:12;;;;;;;;;16.00;16.00;;;;;;;;6491127;31;9212;-61
2021/08/24 14:29:19;;;;;;;;;23.25;21.75;;;;;;;;6490583;46;8950;-60
2021/08/24 14:35:58;;;;;;;;;15.33;13.67;;;;;;;;6490995;39;9001;-62
2021/08/24 14:42:07;;;;;;;;;17.00;17.00;;;;;;;;6490811;46;9134;-62
2021/08/24 14:48:15;;;;;;;;;19.25;15.75;;;;;;;;6490661;46;9002;-61
2021/08/24 14:54:24;;;;;;;;;16.75;15.25;;;;;;;;6490578;46;8990;-61
2021/08/24 15:00:32;;;;;;;;;14.75;14.75;;;;;;;;6490865;39;9103;-63
2021/08/24 15:06:43;;;;;;;;;18.75;16.00;;;;;;;;6491397;39;9048;-62
2021/08/24 15:12:46;;;;;;;;;15.50;15.50;;;;;;;;6491105;39;9081;-63
2021/08/24 15:18:53;;;;;;;;;19.50;18.75;;;;;;;;6490469;39;8966;-62
2021/08/24 15:24:57;;;;;;;;;17.00;17.00;;;;;;;;6490690;39;8994;-62
2021/08/24 15:31:21;;;;;;;;;16.25;14.00;;;;;;;;6491584;39;9761;-61
2021/08/24 15:37:24;;;;;;;;;19.75;19.75;;;;;;;;6489552;46;8982;-61
2021/08/24 15:43:34;;;;;;;;;14.50;14.00;;;;;;;;6491029;31;9154;-62
2021/08/24 15:49:37;;;;;;;;;22.50;18.50;;;;;;;;6490181;46;8974;-63
2021/08/24 15:55:54;;;;;;;;;21.00;20.75;;;;;;;;6490318;39;8988;-61
2021/08/24 16:01:57;;;;;;;;;21.25;20.50;;;;;;;;6489844;46;8994;-62
2021/08/24 16:08:00;;;;;;;;;16.75;16.75;;;;;;;;6489536;46;9053;-61
2021/08/24 16:14:03;;;;;;;;;19.50;19.00;;;;;;;;6490169;39;9033;-61
2021/08/24 16:20:06;;;;;;;;;25.50;22.50;;;;;;;;6489974;39;8975;-61
2021/08/24 16:26:09;;;;;;;;;23.50;23.00;;;;;;;;6490444;31;9089;-61
2021/08/24 16:32:11;;;;;;;;;18.75;18.75;;;;;;;;6489923;31;8983;-61
2021/08/24 16:38:17;;;;;;;;;18.25;18.25;;;;;;;;6489678;39;8946;-61
2021/08/24 16:44:19;;;;;;;;;20.50;20.25;;;;;;;;6491490;31;9006;-62
2021/08/24 16:50:23;;;;;;;;;20.25;19.00;;;;;;;;6491623;39;8978;-61
2021/08/24 16:56:26;;;;;;;;;20.25;18.75;;;;;;;;6491748;39;8995;-62
2021/08/24 17:02:28;;;;;;;;;28.50;28.50;;;;;;;;6490928;46;8982;-62
2021/08/24 17:08:36;;;;;;;;;22.50;21.50;;;;;;;;6490480;39;9215;-62
2021/08/24 17:14:38;;;;;;;;;23.75;20.50;;;;;;;;6490541;46;8962;-61
2021/08/24 17:20:45;;;;;;;;;16.75;16.75;;;;;;;;6491236;39;8968;-62
2021/08/24 17:26:48;;;;;;;;;22.50;19.00;;;;;;;;6490639;31;8946;-61
2021/08/24 17:32:50;;;;;;;;;24.50;24.50;;;;;;;;6490768;39;9059;-62
2021/08/24 17:38:52;;;;;;;;;29.75;29.25;;;;;;;;6490390;39;8934;-61
2021/08/24 17:44:55;;;;;;;;;25.75;22.00;;;;;;;;6489653;46;8988;-62
2021/08/24 17:51:10;;;;;;;;;28.75;26.75;;;;;;;;6489772;39;8946;-61
2021/08/24 17:57:12;;;;;;;;;32.50;26.50;;;;;;;;6489959;39;8954;-61
2021/08/24 18:03:14;;;;;;;;;23.50;23.50;;;;;;;;6489757;46;9009;-62
2021/08/24 18:09:19;;;;;;;;;25.25;23.50;;;;;;;;6490574;39;8979;-62
2021/08/24 18:15:28;;;;;;;;;26.25;24.75;;;;;;;;6490366;39;8926;-63
2021/08/24 18:21:30;;;;;;;;;27.67;27.00;;;;;;;;6490243;31;9027;-61
2021/08/24 18:27:32;;;;;;;;;35.50;31.75;;;;;;;;6490201;39;9008;-61
2021/08/24 18:33:34;;;;;;;;;35.00;32.00;;;;;;;;6490102;39;9709;-62
2021/08/24 18:39:36;;;;;;;;;35.00;33.25;;;;;;;;6489905;39;9589;-60
2021/08/24 18:45:43;;;;;;;;;36.25;30.25;;;;;;;;6489913;31;9020;-61
2021/08/24 18:51:46;;;;;;;;;26.25;24.25;;;;;;;;6489941;39;8993;-62
2021/08/24 18:57:48;;;;;;;;;30.75;28.00;;;;;;;;6504773;36;8927;-61
2021/08/24 19:03:51;;;;;;;;;34.25;30.25;;;;;;;;6489481;46;8990;-61
2021/08/24 19:09:54;;;;;;;;;24.67;23.33;;;;;;;;6489833;39;8984;-61
2021/08/24 19:15:56;;;;;;;;;28.00;26.67;;;;;;;;6490472;31;8937;-61
2021/08/24 19:21:59;;;;;;;;;37.67;32.67;;;;;;;;6489516;46;8987;-61
2021/08/24 19:28:02;;;;;;;;;32.33;29.00;;;;;;;;6489956;39;9024;-62
2021/08/24 19:34:04;;;;;;;;;31.67;29.00;;;;;;;;6490138;39;8934;-63
2021/08/24 19:40:07;;;;;;;;;34.00;33.00;;;;;;;;6506064;31;8946;-62
2021/08/24 19:46:10;;;;;;;;;28.00;28.00;;;;;;;;6488938;39;8959;-62
2021/08/24 19:52:13;;;;;;;;;27.75;26.75;;;;;;;;6489179;46;8995;-61
2021/08/24 19:58:19;;;;;;;;;32.00;31.50;;;;;;;;6489307;39;9100;-61
2021/08/24 20:04:21;;;;;;;;;32.75;30.00;;;;;;;;6489267;39;9002;-62
2021/08/24 20:10:25;;;;;;;;;29.00;27.33;;;;;;;;6489717;39;9005;-62
2021/08/24 20:16:27;;;;;;;;;31.33;29.00;;;;;;;;6488773;46;9080;-60
2021/08/24 20:22:33;;;;;;;;;36.00;33.67;;;;;;;;6488662;39;8971;-61
2021/08/24 20:28:53;;;;;;;;;37.00;30.00;;;;;;;;6488578;46;8953;-62
2021/08/24 20:34:56;;;;;;;;;33.33;30.00;;;;;;;;6488761;47;8962;-61
2021/08/24 20:41:00;;;;;;;;;19.67;19.67;;;;;;;;6487733;47;9089;-61
2021/08/24 20:47:03;;;;;;;;;28.00;25.00;;;;;;;;6488769;39;9568;-61
2021/08/24 20:53:10;;;;;;;;;22.75;22.00;;;;;;;;6488760;47;8973;-62
2021/08/24 20:59:13;;;;;;;;;24.33;23.67;;;;;;;;6488477;39;8973;-62
2021/08/24 21:05:31;;;;;;;;;20.00;18.33;;;;;;;;6489779;31;9001;-62
2021/08/24 21:11:35;;;;;;;;;27.00;24.67;;;;;;;;6488745;39;9002;-61
2021/08/24 21:17:37;;;;;;;;;26.67;23.67;;;;;;;;6488404;39;8969;-61
2021/08/24 21:23:39;;;;;;;;;25.67;22.33;;;;;;;;6488938;39;9662;-61
2021/08/24 21:29:41;;;;;;;;;23.33;20.00;;;;;;;;6490185;31;8965;-61
2021/08/24 21:35:54;;;;;;;;;17.50;16.50;;;;;;;;6490545;39;8966;-61
2021/08/24 21:41:56;;;;;;;;;18.33;18.33;;;;;;;;6491102;39;8957;-61
2021/08/24 21:47:58;;;;;;;;;19.25;17.00;;;;;;;;6491478;39;9563;-61
2021/08/24 21:54:03;;;;;;;;;16.00;15.00;;;;;;;;6490983;39;8958;-61
2021/08/24 22:00:11;;;;;;;;;14.00;13.00;;;;;;;;6490656;39;9751;-61
2021/08/24 22:06:14;;;;;;;;;18.33;17.33;;;;;;;;6491514;39;9011;-61
2021/08/24 22:12:16;;;;;;;;;19.00;19.00;;;;;;;;6490294;46;8954;-60
2021/08/24 22:18:20;;;;;;;;;17.00;14.75;;;;;;;;6490994;39;9617;-62
2021/08/24 22:24:27;;;;;;;;;19.67;19.33;;;;;;;;6490031;46;8970;-60
2021/08/24 22:30:31;;;;;;;;;19.00;18.00;;;;;;;;6489889;46;9218;-62
2021/08/24 22:36:46;;;;;;;;;11.67;10.67;;;;;;;;6490558;39;8978;-61
2021/08/24 22:42:48;;;;;;;;;17.67;16.00;;;;;;;;6490968;31;9006;-61
2021/08/24 22:48:53;;;;;;;;;18.00;18.00;;;;;;;;6490536;39;8986;-61
2021/08/24 22:54:55;;;;;;;;;18.67;16.67;;;;;;;;6490457;39;8989;-60
2021/08/24 23:00:58;;;;;;;;;20.33;18.33;;;;;;;;6489549;46;9010;-63
2021/08/24 23:07:00;;;;;;;;;18.67;18.00;;;;;;;;6490166;39;9013;-60
2021/08/24 23:13:03;;;;;;;;;19.00;19.00;;;;;;;;6489144;31;9649;-60
2021/08/24 23:19:05;;;;;;;;;18.33;17.33;;;;;;;;6490302;31;8975;-61
2021/08/24 23:25:14;;;;;;;;;20.67;17.00;;;;;;;;6490141;31;8950;-62
2021/08/24 23:31:16;;;;;;;;;17.33;17.00;;;;;;;;6489603;46;8965;-61
2021/08/24 23:37:58;;;;;;;;;24.00;20.67;;;;;;;;6490267;39;8842;-61
2021/08/24 23:44:02;;;;;;;;;15.00;15.00;;;;;;;;6490731;31;8953;-62
2021/08/24 23:50:05;;;;;;;;;20.00;15.33;;;;;;;;6489715;39;8947;-62
2021/08/24 23:56:07;;;;;;;;;18.33;18.00;;;;;;;;6489413;31;9099;-61
